sensor_id;sensor_type;location;lat;lon;timestamp;temperature;humidity
21104;DHT22;10710;53.398;-1.514;2024-02-14T00:01:35;9.20;99.90
21104;DHT22;10710;53.398;-1.514;2024-02-14T00:04:20;9.20;99.90
21104;DHT22;10710;53.398;-1.514;2024-02-14T00:07:05;9.30;99.90
21104;DHT22;10710;53.398;-1.514;2024-02-14T00:09:49;9.10;99.90
21104;DHT22;10710;53.398;-1.514;2024-02-14T00:12:34;9.30;99.90
21104;DHT22;10710;53.398;-1.514;2024-02-14T00:15:19;9.30;99.90
21104;DHT22;10710;53.398;-1.514;2024-02-14T00:18:03;9.40;99.90
21104;DHT22;10710;53.398;-1.514;2024-02-14T00:20:47;9.30;99.90
21104;DHT22;10710;53.398;-1.514;2024-02-14T00:23:31;9.20;99.90
21104;DHT22;10710;53.398;-1.514;2024-02-14T00:26:16;9.30;99.90
21104;DHT22;10710;53.398;-1.514;2024-02-14T00:29:00;9.30;99.90
21104;DHT22;10710;53.398;-1.514;2024-02-14T00:31:44;9.20;99.90
21104;DHT22;10710;53.398;-1.514;2024-02-14T00:34:29;9.10;99.90
21104;DHT22;10710;53.398;-1.514;2024-02-14T00:37:13;9.30;99.90
21104;DHT22;10710;53.398;-1.514;2024-02-14T00:39:57;9.40;99.90
21104;DHT22;10710;53.398;-1.514;2024-02-14T00:42:42;9.40;99.90
21104;DHT22;10710;53.398;-1.514;2024-02-14T00:45:26;9.30;99.90
21104;DHT22;10710;53.398;-1.514;2024-02-14T00:48:11;9.70;99.90
21104;DHT22;10710;53.398;-1.514;2024-02-14T00:50:55;9.50;99.90
21104;DHT22;10710;53.398;-1.514;2024-02-14T00:53:39;9.40;99.90
21104;DHT22;10710;53.398;-1.514;2024-02-14T00:56:23;9.60;99.90
21104;DHT22;10710;53.398;-1.514;2024-02-14T00:59:08;9.50;99.90
21104;DHT22;10710;53.398;-1.514;2024-02-14T01:01:53;9.50;99.90
21104;DHT22;10710;53.398;-1.514;2024-02-14T01:04:37;9.40;99.90
21104;DHT22;10710;53.398;-1.514;2024-02-14T01:07:22;9.30;99.90
21104;DHT22;10710;53.398;-1.514;2024-02-14T01:10:07;9.40;99.90
21104;DHT22;10710;53.398;-1.514;2024-02-14T01:12:52;9.40;99.90
21104;DHT22;10710;53.398;-1.514;2024-02-14T01:15:36;9.50;99.90
21104;DHT22;10710;53.398;-1.514;2024-02-14T01:18:21;9.40;99.90
21104;DHT22;10710;53.398;-1.514;2024-02-14T01:21:05;9.60;99.90
21104;DHT22;10710;53.398;-1.514;2024-02-14T01:23:50;9.60;99.90
21104;DHT22;10710;53.398;-1.514;2024-02-14T01:26:36;9.60;99.90
21104;DHT22;10710;53.398;-1.514;2024-02-14T01:29:20;9.40;99.90
21104;DHT22;10710;53.398;-1.514;2024-02-14T01:32:05;9.50;99.90
21104;DHT22;10710;53.398;-1.514;2024-02-14T01:34:50;9.50;99.90
21104;DHT22;10710;53.398;-1.514;2024-02-14T01:37:34;9.70;99.90
21104;DHT22;10710;53.398;-1.514;2024-02-14T01:40:19;9.50;99.90
21104;DHT22;10710;53.398;-1.514;2024-02-14T01:43:03;9.70;99.90
21104;DHT22;10710;53.398;-1.514;2024-02-14T01:45:48;9.70;99.90
21104;DHT22;10710;53.398;-1.514;2024-02-14T01:48:34;9.70;99.90
21104;DHT22;10710;53.398;-1.514;2024-02-14T01:51:22;9.60;99.90
21104;DHT22;10710;53.398;-1.514;2024-02-14T01:54:09;9.50;99.90
21104;DHT22;10710;53.398;-1.514;2024-02-14T01:56:55;9.70;99.90
21104;DHT22;10710;53.398;-1.514;2024-02-14T01:59:40;9.70;99.90
21104;DHT22;10710;53.398;-1.514;2024-02-14T02:02:26;9.70;99.90
21104;DHT22;10710;53.398;-1.514;2024-02-14T02:05:11;9.60;99.90
21104;DHT22;10710;53.398;-1.514;2024-02-14T02:07:56;9.60;99.90
21104;DHT22;10710;53.398;-1.514;2024-02-14T02:10:40;9.70;99.90
21104;DHT22;10710;53.398;-1.514;2024-02-14T02:13:24;9.60;99.90
21104;DHT22;10710;53.398;-1.514;2024-02-14T02:16:09;9.60;99.90
21104;DHT22;10710;53.398;-1.514;2024-02-14T02:18:54;9.60;99.90
21104;DHT22;10710;53.398;-1.514;2024-02-14T02:21:38;9.70;99.90
21104;DHT22;10710;53.398;-1.514;2024-02-14T02:24:23;9.00;99.90
21104;DHT22;10710;53.398;-1.514;2024-02-14T02:27:07;9.80;99.90
21104;DHT22;10710;53.398;-1.514;2024-02-14T02:29:51;9.80;99.90
21104;DHT22;10710;53.398;-1.514;2024-02-14T02:32:35;9.80;99.90
21104;DHT22;10710;53.398;-1.514;2024-02-14T02:35:19;9.80;99.90
21104;DHT22;10710;53.398;-1.514;2024-02-14T02:38:04;9.80;99.90
21104;DHT22;10710;53.398;-1.514;2024-02-14T02:40:48;9.90;99.90
21104;DHT22;10710;53.398;-1.514;2024-02-14T02:43:33;9.70;99.90
21104;DHT22;10710;53.398;-1.514;2024-02-14T02:46:18;10.00;99.90
21104;DHT22;10710;53.398;-1.514;2024-02-14T02:49:02;9.80;99.90
21104;DHT22;10710;53.398;-1.514;2024-02-14T02:51:46;9.90;99.90
21104;DHT22;10710;53.398;-1.514;2024-02-14T02:54:31;10.00;99.90
21104;DHT22;10710;53.398;-1.514;2024-02-14T02:57:15;9.90;99.90
21104;DHT22;10710;53.398;-1.514;2024-02-14T02:59:59;10.00;99.90
21104;DHT22;10710;53.398;-1.514;2024-02-14T03:02:44;10.00;99.90
21104;DHT22;10710;53.398;-1.514;2024-02-14T03:05:28;10.00;99.90
21104;DHT22;10710;53.398;-1.514;2024-02-14T03:08:15;10.20;99.90
21104;DHT22;10710;53.398;-1.514;2024-02-14T03:11:05;10.10;99.90
21104;DHT22;10710;53.398;-1.514;2024-02-14T03:13:50;10.10;99.90
21104;DHT22;10710;53.398;-1.514;2024-02-14T03:16:34;10.00;99.90
21104;DHT22;10710;53.398;-1.514;2024-02-14T03:19:18;10.20;99.90
21104;DHT22;10710;53.398;-1.514;2024-02-14T03:22:02;10.10;99.90
21104;DHT22;10710;53.398;-1.514;2024-02-14T03:24:50;10.10;99.90
21104;DHT22;10710;53.398;-1.514;2024-02-14T03:27:34;10.10;99.90
21104;DHT22;10710;53.398;-1.514;2024-02-14T03:30:20;10.20;99.90
21104;DHT22;10710;53.398;-1.514;2024-02-14T03:33:05;10.20;99.90
21104;DHT22;10710;53.398;-1.514;2024-02-14T03:35:55;10.00;99.90
21104;DHT22;10710;53.398;-1.514;2024-02-14T03:38:39;9.90;99.90
21104;DHT22;10710;53.398;-1.514;2024-02-14T03:41:25;10.10;99.90
21104;DHT22;10710;53.398;-1.514;2024-02-14T03:44:09;10.10;99.90
21104;DHT22;10710;53.398;-1.514;2024-02-14T03:46:54;10.10;99.90
21104;DHT22;10710;53.398;-1.514;2024-02-14T03:49:38;10.20;99.90
21104;DHT22;10710;53.398;-1.514;2024-02-14T03:52:22;10.00;99.90
21104;DHT22;10710;53.398;-1.514;2024-02-14T03:55:07;10.10;99.90
21104;DHT22;10710;53.398;-1.514;2024-02-14T03:57:53;10.00;99.90
21104;DHT22;10710;53.398;-1.514;2024-02-14T04:00:37;10.00;99.90
21104;DHT22;10710;53.398;-1.514;2024-02-14T04:03:21;10.00;99.90
21104;DHT22;10710;53.398;-1.514;2024-02-14T04:06:06;10.00;99.90
21104;DHT22;10710;53.398;-1.514;2024-02-14T04:08:50;10.10;99.90
21104;DHT22;10710;53.398;-1.514;2024-02-14T04:11:34;10.00;99.90
21104;DHT22;10710;53.398;-1.514;2024-02-14T04:14:18;10.20;99.90
21104;DHT22;10710;53.398;-1.514;2024-02-14T04:17:04;10.10;99.90
21104;DHT22;10710;53.398;-1.514;2024-02-14T04:19:50;10.20;99.90
21104;DHT22;10710;53.398;-1.514;2024-02-14T04:22:34;10.10;99.90
21104;DHT22;10710;53.398;-1.514;2024-02-14T04:25:19;10.10;99.90
21104;DHT22;10710;53.398;-1.514;2024-02-14T04:28:03;10.30;99.90
21104;DHT22;10710;53.398;-1.514;2024-02-14T04:30:48;10.40;99.90
21104;DHT22;10710;53.398;-1.514;2024-02-14T04:33:32;10.40;99.90
21104;DHT22;10710;53.398;-1.514;2024-02-14T04:36:16;10.40;99.90
21104;DHT22;10710;53.398;-1.514;2024-02-14T04:39:01;10.40;99.90
21104;DHT22;10710;53.398;-1.514;2024-02-14T04:41:46;10.40;99.90
21104;DHT22;10710;53.398;-1.514;2024-02-14T04:44:31;10.40;99.90
21104;DHT22;10710;53.398;-1.514;2024-02-14T04:47:16;10.60;99.90
21104;DHT22;10710;53.398;-1.514;2024-02-14T04:50:00;10.80;99.90
21104;DHT22;10710;53.398;-1.514;2024-02-14T04:52:48;10.70;99.90
21104;DHT22;10710;53.398;-1.514;2024-02-14T04:55:32;10.80;99.90
21104;DHT22;10710;53.398;-1.514;2024-02-14T04:58:17;10.40;99.90
21104;DHT22;10710;53.398;-1.514;2024-02-14T05:01:02;10.60;99.90
21104;DHT22;10710;53.398;-1.514;2024-02-14T05:03:47;10.60;99.90
21104;DHT22;10710;53.398;-1.514;2024-02-14T05:06:33;10.60;99.90
21104;DHT22;10710;53.398;-1.514;2024-02-14T05:09:18;10.60;99.90
21104;DHT22;10710;53.398;-1.514;2024-02-14T05:12:03;10.80;99.90
21104;DHT22;10710;53.398;-1.514;2024-02-14T05:14:48;10.60;99.90
21104;DHT22;10710;53.398;-1.514;2024-02-14T05:17:32;10.70;99.90
21104;DHT22;10710;53.398;-1.514;2024-02-14T05:20:17;10.80;99.90
21104;DHT22;10710;53.398;-1.514;2024-02-14T05:23:01;11.00;99.90
21104;DHT22;10710;53.398;-1.514;2024-02-14T05:25:45;10.80;99.90
21104;DHT22;10710;53.398;-1.514;2024-02-14T05:28:30;11.00;99.90
21104;DHT22;10710;53.398;-1.514;2024-02-14T05:31:15;10.60;99.90
21104;DHT22;10710;53.398;-1.514;2024-02-14T05:34:00;10.90;99.90
21104;DHT22;10710;53.398;-1.514;2024-02-14T05:36:44;11.00;99.90
21104;DHT22;10710;53.398;-1.514;2024-02-14T05:39:30;11.30;99.90
21104;DHT22;10710;53.398;-1.514;2024-02-14T05:42:14;11.40;99.90
21104;DHT22;10710;53.398;-1.514;2024-02-14T05:45:00;11.30;99.90
21104;DHT22;10710;53.398;-1.514;2024-02-14T05:47:46;11.60;99.90
21104;DHT22;10710;53.398;-1.514;2024-02-14T05:50:31;11.70;99.90
21104;DHT22;10710;53.398;-1.514;2024-02-14T05:53:16;11.60;99.90
21104;DHT22;10710;53.398;-1.514;2024-02-14T05:56:00;11.50;99.90
21104;DHT22;10710;53.398;-1.514;2024-02-14T05:58:44;11.80;99.90
21104;DHT22;10710;53.398;-1.514;2024-02-14T06:01:28;11.60;99.90
21104;DHT22;10710;53.398;-1.514;2024-02-14T06:04:13;11.80;99.90
21104;DHT22;10710;53.398;-1.514;2024-02-14T06:06:57;11.80;99.90
21104;DHT22;10710;53.398;-1.514;2024-02-14T06:09:41;11.80;99.90
21104;DHT22;10710;53.398;-1.514;2024-02-14T06:12:25;11.80;99.90
21104;DHT22;10710;53.398;-1.514;2024-02-14T06:15:10;11.60;99.90
21104;DHT22;10710;53.398;-1.514;2024-02-14T06:17:54;11.80;99.90
21104;DHT22;10710;53.398;-1.514;2024-02-14T06:20:39;11.70;99.90
21104;DHT22;10710;53.398;-1.514;2024-02-14T06:23:23;11.50;99.90
21104;DHT22;10710;53.398;-1.514;2024-02-14T06:26:07;11.50;99.90
21104;DHT22;10710;53.398;-1.514;2024-02-14T06:28:52;11.50;99.90
21104;DHT22;10710;53.398;-1.514;2024-02-14T06:31:38;11.40;99.90
21104;DHT22;10710;53.398;-1.514;2024-02-14T06:34:23;11.50;99.90
21104;DHT22;10710;53.398;-1.514;2024-02-14T06:37:08;11.50;99.90
21104;DHT22;10710;53.398;-1.514;2024-02-14T06:39:53;11.40;99.90
21104;DHT22;10710;53.398;-1.514;2024-02-14T06:42:37;11.70;99.90
21104;DHT22;10710;53.398;-1.514;2024-02-14T06:45:21;11.60;99.90
21104;DHT22;10710;53.398;-1.514;2024-02-14T06:48:07;11.30;99.90
21104;DHT22;10710;53.398;-1.514;2024-02-14T06:50:52;11.70;99.90
21104;DHT22;10710;53.398;-1.514;2024-02-14T06:53:36;11.70;99.90
21104;DHT22;10710;53.398;-1.514;2024-02-14T06:56:20;11.80;99.90
21104;DHT22;10710;53.398;-1.514;2024-02-14T06:59:04;11.90;99.90
21104;DHT22;10710;53.398;-1.514;2024-02-14T07:01:49;11.90;99.90
21104;DHT22;10710;53.398;-1.514;2024-02-14T07:04:34;12.00;99.90
21104;DHT22;10710;53.398;-1.514;2024-02-14T07:07:18;11.90;99.90
21104;DHT22;10710;53.398;-1.514;2024-02-14T07:10:02;12.00;99.90
21104;DHT22;10710;53.398;-1.514;2024-02-14T07:12:47;12.10;99.90
21104;DHT22;10710;53.398;-1.514;2024-02-14T07:15:32;11.90;99.90
21104;DHT22;10710;53.398;-1.514;2024-02-14T07:18:16;12.10;99.90
21104;DHT22;10710;53.398;-1.514;2024-02-14T07:21:00;12.00;99.90
21104;DHT22;10710;53.398;-1.514;2024-02-14T07:23:47;12.00;99.90
21104;DHT22;10710;53.398;-1.514;2024-02-14T07:26:32;11.90;99.90
21104;DHT22;10710;53.398;-1.514;2024-02-14T07:29:16;12.00;99.90
21104;DHT22;10710;53.398;-1.514;2024-02-14T07:32:02;12.10;99.90
21104;DHT22;10710;53.398;-1.514;2024-02-14T07:34:46;12.00;99.90
21104;DHT22;10710;53.398;-1.514;2024-02-14T07:37:31;12.00;99.90
21104;DHT22;10710;53.398;-1.514;2024-02-14T07:40:15;12.20;99.90
21104;DHT22;10710;53.398;-1.514;2024-02-14T07:43:00;12.30;99.90
21104;DHT22;10710;53.398;-1.514;2024-02-14T07:45:45;12.50;99.90
21104;DHT22;10710;53.398;-1.514;2024-02-14T07:48:29;12.20;99.90
21104;DHT22;10710;53.398;-1.514;2024-02-14T07:51:13;12.50;99.90
21104;DHT22;10710;53.398;-1.514;2024-02-14T07:53:58;12.50;99.90
21104;DHT22;10710;53.398;-1.514;2024-02-14T07:56:42;12.50;99.90
21104;DHT22;10710;53.398;-1.514;2024-02-14T07:59:27;12.30;99.90
21104;DHT22;10710;53.398;-1.514;2024-02-14T08:02:11;12.40;99.90
21104;DHT22;10710;53.398;-1.514;2024-02-14T08:04:56;12.40;99.90
21104;DHT22;10710;53.398;-1.514;2024-02-14T08:13:09;12.40;99.90
21104;DHT22;10710;53.398;-1.514;2024-02-14T08:15:55;12.30;99.90
21104;DHT22;10710;53.398;-1.514;2024-02-14T08:18:39;12.30;99.90
21104;DHT22;10710;53.398;-1.514;2024-02-14T08:21:28;12.70;99.90
21104;DHT22;10710;53.398;-1.514;2024-02-14T08:24:12;12.50;99.90
21104;DHT22;10710;53.398;-1.514;2024-02-14T08:26:56;12.60;99.90
21104;DHT22;10710;53.398;-1.514;2024-02-14T08:29:40;12.70;99.90
21104;DHT22;10710;53.398;-1.514;2024-02-14T08:32:25;12.30;99.90
21104;DHT22;10710;53.398;-1.514;2024-02-14T08:37:59;12.60;99.90
21104;DHT22;10710;53.398;-1.514;2024-02-14T08:43:30;12.50;99.90
21104;DHT22;10710;53.398;-1.514;2024-02-14T08:46:14;12.60;99.90
21104;DHT22;10710;53.398;-1.514;2024-02-14T08:49:01;12.20;99.90
21104;DHT22;10710;53.398;-1.514;2024-02-14T08:51:53;12.00;99.90
21104;DHT22;10710;53.398;-1.514;2024-02-14T08:54:38;12.30;99.90
21104;DHT22;10710;53.398;-1.514;2024-02-14T08:57:22;12.10;99.90
21104;DHT22;10710;53.398;-1.514;2024-02-14T09:00:08;12.40;99.90
21104;DHT22;10710;53.398;-1.514;2024-02-14T09:02:54;12.30;99.90
21104;DHT22;10710;53.398;-1.514;2024-02-14T09:05:39;12.50;99.90
21104;DHT22;10710;53.398;-1.514;2024-02-14T09:11:09;12.60;99.90
21104;DHT22;10710;53.398;-1.514;2024-02-14T09:13:53;12.60;99.90
21104;DHT22;10710;53.398;-1.514;2024-02-14T09:16:40;12.50;99.90
21104;DHT22;10710;53.398;-1.514;2024-02-14T09:19:24;12.70;99.90
21104;DHT22;10710;53.398;-1.514;2024-02-14T09:22:09;12.80;99.90
21104;DHT22;10710;53.398;-1.514;2024-02-14T09:24:53;13.10;99.90
21104;DHT22;10710;53.398;-1.514;2024-02-14T09:27:37;13.10;99.90
21104;DHT22;10710;53.398;-1.514;2024-02-14T09:30:22;13.10;99.90
21104;DHT22;10710;53.398;-1.514;2024-02-14T09:33:07;13.00;99.90
21104;DHT22;10710;53.398;-1.514;2024-02-14T09:35:51;13.10;99.90
21104;DHT22;10710;53.398;-1.514;2024-02-14T09:38:36;12.90;99.90
21104;DHT22;10710;53.398;-1.514;2024-02-14T09:41:37;12.80;99.90
21104;DHT22;10710;53.398;-1.514;2024-02-14T09:44:23;13.00;99.90
21104;DHT22;10710;53.398;-1.514;2024-02-14T09:47:09;13.30;99.90
21104;DHT22;10710;53.398;-1.514;2024-02-14T09:49:54;13.30;99.90
21104;DHT22;10710;53.398;-1.514;2024-02-14T09:52:39;13.60;99.90
21104;DHT22;10710;53.398;-1.514;2024-02-14T09:55:25;13.60;99.90
21104;DHT22;10710;53.398;-1.514;2024-02-14T09:58:10;13.80;99.90
21104;DHT22;10710;53.398;-1.514;2024-02-14T10:00:55;13.60;99.90
21104;DHT22;10710;53.398;-1.514;2024-02-14T10:03:39;13.80;99.90
21104;DHT22;10710;53.398;-1.514;2024-02-14T10:06:24;13.70;99.90
21104;DHT22;10710;53.398;-1.514;2024-02-14T10:09:09;13.80;99.90
21104;DHT22;10710;53.398;-1.514;2024-02-14T10:11:54;13.80;99.90
21104;DHT22;10710;53.398;-1.514;2024-02-14T10:14:39;13.80;99.90
21104;DHT22;10710;53.398;-1.514;2024-02-14T10:17:24;13.60;99.90
21104;DHT22;10710;53.398;-1.514;2024-02-14T10:20:10;13.70;99.90
21104;DHT22;10710;53.398;-1.514;2024-02-14T10:23:01;13.80;99.90
21104;DHT22;10710;53.398;-1.514;2024-02-14T10:25:50;14.00;99.90
21104;DHT22;10710;53.398;-1.514;2024-02-14T10:28:35;13.90;99.90
21104;DHT22;10710;53.398;-1.514;2024-02-14T10:31:19;13.90;99.90
21104;DHT22;10710;53.398;-1.514;2024-02-14T10:34:04;13.80;99.90
21104;DHT22;10710;53.398;-1.514;2024-02-14T10:36:52;13.90;99.90
21104;DHT22;10710;53.398;-1.514;2024-02-14T10:39:39;13.90;99.90
21104;DHT22;10710;53.398;-1.514;2024-02-14T10:42:25;14.00;99.90
21104;DHT22;10710;53.398;-1.514;2024-02-14T10:45:09;14.10;99.90
21104;DHT22;10710;53.398;-1.514;2024-02-14T10:47:56;13.70;99.90
21104;DHT22;10710;53.398;-1.514;2024-02-14T10:50:42;13.90;99.90
21104;DHT22;10710;53.398;-1.514;2024-02-14T10:53:29;13.90;99.90
21104;DHT22;10710;53.398;-1.514;2024-02-14T10:56:18;13.80;99.90
21104;DHT22;10710;53.398;-1.514;2024-02-14T10:59:08;13.80;99.90
21104;DHT22;10710;53.398;-1.514;2024-02-14T11:01:54;13.70;99.90
21104;DHT22;10710;53.398;-1.514;2024-02-14T11:04:41;13.90;99.90
21104;DHT22;10710;53.398;-1.514;2024-02-14T11:07:27;14.20;99.90
21104;DHT22;10710;53.398;-1.514;2024-02-14T11:10:17;14.40;99.90
21104;DHT22;10710;53.398;-1.514;2024-02-14T11:13:01;14.10;99.90
21104;DHT22;10710;53.398;-1.514;2024-02-14T11:15:46;14.40;99.90
21104;DHT22;10710;53.398;-1.514;2024-02-14T11:18:33;14.40;99.90
21104;DHT22;10710;53.398;-1.514;2024-02-14T11:21:21;14.20;99.90
21104;DHT22;10710;53.398;-1.514;2024-02-14T11:24:13;14.50;99.90
21104;DHT22;10710;53.398;-1.514;2024-02-14T11:27:02;14.40;99.90
21104;DHT22;10710;53.398;-1.514;2024-02-14T11:29:53;14.30;99.90
21104;DHT22;10710;53.398;-1.514;2024-02-14T11:32:37;14.50;99.90
21104;DHT22;10710;53.398;-1.514;2024-02-14T11:35:26;14.40;99.90
21104;DHT22;10710;53.398;-1.514;2024-02-14T11:38:11;14.30;99.90
21104;DHT22;10710;53.398;-1.514;2024-02-14T11:40:56;14.40;99.90
21104;DHT22;10710;53.398;-1.514;2024-02-14T11:43:51;14.20;99.90
21104;DHT22;10710;53.398;-1.514;2024-02-14T11:46:36;14.40;99.90
21104;DHT22;10710;53.398;-1.514;2024-02-14T11:54:54;14.70;99.90
21104;DHT22;10710;53.398;-1.514;2024-02-14T11:57:40;14.60;99.90
21104;DHT22;10710;53.398;-1.514;2024-02-14T12:00:25;15.00;99.90
21104;DHT22;10710;53.398;-1.514;2024-02-14T12:03:15;14.70;99.90
21104;DHT22;10710;53.398;-1.514;2024-02-14T12:05:59;14.60;99.90
21104;DHT22;10710;53.398;-1.514;2024-02-14T12:08:44;14.60;99.90
21104;DHT22;10710;53.398;-1.514;2024-02-14T12:11:29;14.50;99.90
21104;DHT22;10710;53.398;-1.514;2024-02-14T12:14:14;14.60;99.90
21104;DHT22;10710;53.398;-1.514;2024-02-14T12:17:00;14.60;99.90
21104;DHT22;10710;53.398;-1.514;2024-02-14T12:28:08;14.70;99.90
21104;DHT22;10710;53.398;-1.514;2024-02-14T12:39:11;15.00;99.90
21104;DHT22;10710;53.398;-1.514;2024-02-14T12:44:41;14.80;99.90
21104;DHT22;10710;53.398;-1.514;2024-02-14T12:47:25;14.70;99.90
21104;DHT22;10710;53.398;-1.514;2024-02-14T12:53:02;14.70;99.90
21104;DHT22;10710;53.398;-1.514;2024-02-14T12:55:47;14.90;99.90
21104;DHT22;10710;53.398;-1.514;2024-02-14T13:04:02;14.80;99.90
21104;DHT22;10710;53.398;-1.514;2024-02-14T13:09:34;14.90;99.90
21104;DHT22;10710;53.398;-1.514;2024-02-14T13:20:36;14.70;99.90
21104;DHT22;10710;53.398;-1.514;2024-02-14T13:23:21;14.90;99.90
21104;DHT22;10710;53.398;-1.514;2024-02-14T13:31:36;14.60;99.90
21104;DHT22;10710;53.398;-1.514;2024-02-14T13:34:21;14.50;99.90
21104;DHT22;10710;53.398;-1.514;2024-02-14T13:59:09;14.30;99.90
21104;DHT22;10710;53.398;-1.514;2024-02-14T14:01:55;14.30;99.90
21104;DHT22;10710;53.398;-1.514;2024-02-14T14:04:40;14.20;99.90
21104;DHT22;10710;53.398;-1.514;2024-02-14T14:10:09;14.20;99.90
21104;DHT22;10710;53.398;-1.514;2024-02-14T14:12:54;14.20;99.90
21104;DHT22;10710;53.398;-1.514;2024-02-14T14:15:39;14.30;99.90
21104;DHT22;10710;53.398;-1.514;2024-02-14T14:18:24;14.30;99.90
21104;DHT22;10710;53.398;-1.514;2024-02-14T14:21:12;14.70;99.90
21104;DHT22;10710;53.398;-1.514;2024-02-14T14:23:57;15.00;99.90
21104;DHT22;10710;53.398;-1.514;2024-02-14T14:26:54;14.90;99.90
21104;DHT22;10710;53.398;-1.514;2024-02-14T14:29:38;15.10;99.90
21104;DHT22;10710;53.398;-1.514;2024-02-14T14:32:23;15.20;99.90
21104;DHT22;10710;53.398;-1.514;2024-02-14T14:35:08;15.40;99.90
21104;DHT22;10710;53.398;-1.514;2024-02-14T14:37:54;15.10;99.90
21104;DHT22;10710;53.398;-1.514;2024-02-14T14:40:39;15.10;99.90
21104;DHT22;10710;53.398;-1.514;2024-02-14T14:43:23;15.30;99.90
21104;DHT22;10710;53.398;-1.514;2024-02-14T14:46:08;15.30;99.90
21104;DHT22;10710;53.398;-1.514;2024-02-14T14:48:52;15.50;99.90
21104;DHT22;10710;53.398;-1.514;2024-02-14T14:51:37;15.90;99.90
21104;DHT22;10710;53.398;-1.514;2024-02-14T14:54:22;16.10;99.90
21104;DHT22;10710;53.398;-1.514;2024-02-14T14:57:07;16.20;99.90
21104;DHT22;10710;53.398;-1.514;2024-02-14T14:59:58;15.90;99.90
21104;DHT22;10710;53.398;-1.514;2024-02-14T15:02:43;15.70;99.90
21104;DHT22;10710;53.398;-1.514;2024-02-14T15:05:28;15.70;99.90
21104;DHT22;10710;53.398;-1.514;2024-02-14T15:08:12;15.90;99.90
21104;DHT22;10710;53.398;-1.514;2024-02-14T15:10:57;15.80;99.90
21104;DHT22;10710;53.398;-1.514;2024-02-14T15:13:42;15.90;99.90
21104;DHT22;10710;53.398;-1.514;2024-02-14T15:16:28;15.80;99.90
21104;DHT22;10710;53.398;-1.514;2024-02-14T15:19:13;15.40;99.90
21104;DHT22;10710;53.398;-1.514;2024-02-14T15:21:57;15.60;99.90
21104;DHT22;10710;53.398;-1.514;2024-02-14T15:24:47;15.80;99.90
21104;DHT22;10710;53.398;-1.514;2024-02-14T15:27:32;16.00;99.90
21104;DHT22;10710;53.398;-1.514;2024-02-14T15:30:17;16.10;99.90
21104;DHT22;10710;53.398;-1.514;2024-02-14T15:33:20;16.10;99.90
21104;DHT22;10710;53.398;-1.514;2024-02-14T15:36:09;15.90;99.90
21104;DHT22;10710;53.398;-1.514;2024-02-14T15:38:54;15.80;99.90
21104;DHT22;10710;53.398;-1.514;2024-02-14T15:41:38;15.90;99.90
21104;DHT22;10710;53.398;-1.514;2024-02-14T15:44:23;15.90;99.90
21104;DHT22;10710;53.398;-1.514;2024-02-14T15:47:08;15.70;99.90
21104;DHT22;10710;53.398;-1.514;2024-02-14T15:49:54;15.70;99.90
21104;DHT22;10710;53.398;-1.514;2024-02-14T15:52:38;15.70;99.90
21104;DHT22;10710;53.398;-1.514;2024-02-14T15:55:23;15.70;99.90
21104;DHT22;10710;53.398;-1.514;2024-02-14T15:58:08;15.70;99.90
21104;DHT22;10710;53.398;-1.514;2024-02-14T16:00:54;15.60;99.90
21104;DHT22;10710;53.398;-1.514;2024-02-14T16:03:39;15.60;99.90
21104;DHT22;10710;53.398;-1.514;2024-02-14T16:06:24;15.60;99.90
21104;DHT22;10710;53.398;-1.514;2024-02-14T16:09:09;15.60;99.90
21104;DHT22;10710;53.398;-1.514;2024-02-14T16:11:53;15.70;99.90
21104;DHT22;10710;53.398;-1.514;2024-02-14T16:14:38;15.50;99.90
21104;DHT22;10710;53.398;-1.514;2024-02-14T16:17:26;15.60;99.90
21104;DHT22;10710;53.398;-1.514;2024-02-14T16:20:12;15.60;99.90
21104;DHT22;10710;53.398;-1.514;2024-02-14T16:22:57;15.60;99.90
21104;DHT22;10710;53.398;-1.514;2024-02-14T16:25:41;15.50;99.90
21104;DHT22;10710;53.398;-1.514;2024-02-14T16:28:26;15.60;99.90
21104;DHT22;10710;53.398;-1.514;2024-02-14T16:31:11;15.60;99.90
21104;DHT22;10710;53.398;-1.514;2024-02-14T16:33:56;15.70;99.90
21104;DHT22;10710;53.398;-1.514;2024-02-14T16:36:41;15.60;99.90
21104;DHT22;10710;53.398;-1.514;2024-02-14T16:39:25;15.60;99.90
21104;DHT22;10710;53.398;-1.514;2024-02-14T16:42:10;15.70;99.90
21104;DHT22;10710;53.398;-1.514;2024-02-14T16:44:55;15.50;99.90
21104;DHT22;10710;53.398;-1.514;2024-02-14T16:47:45;15.40;99.90
21104;DHT22;10710;53.398;-1.514;2024-02-14T16:50:33;15.40;99.90
21104;DHT22;10710;53.398;-1.514;2024-02-14T16:53:20;15.20;99.90
21104;DHT22;10710;53.398;-1.514;2024-02-14T16:56:05;14.80;99.90
21104;DHT22;10710;53.398;-1.514;2024-02-14T16:58:51;14.70;99.90
21104;DHT22;10710;53.398;-1.514;2024-02-14T17:01:36;14.80;99.90
21104;DHT22;10710;53.398;-1.514;2024-02-14T17:04:20;15.00;99.90
21104;DHT22;10710;53.398;-1.514;2024-02-14T17:07:07;14.90;99.90
21104;DHT22;10710;53.398;-1.514;2024-02-14T17:09:54;14.70;99.90
21104;DHT22;10710;53.398;-1.514;2024-02-14T17:12:42;14.70;99.90
21104;DHT22;10710;53.398;-1.514;2024-02-14T17:15:26;14.60;99.90
21104;DHT22;10710;53.398;-1.514;2024-02-14T17:18:11;14.80;99.90
21104;DHT22;10710;53.398;-1.514;2024-02-14T17:20:56;14.80;99.90
21104;DHT22;10710;53.398;-1.514;2024-02-14T17:23:40;14.60;99.90
21104;DHT22;10710;53.398;-1.514;2024-02-14T17:26:25;14.50;99.90
21104;DHT22;10710;53.398;-1.514;2024-02-14T17:29:10;14.50;99.90
21104;DHT22;10710;53.398;-1.514;2024-02-14T17:31:55;14.50;99.90
21104;DHT22;10710;53.398;-1.514;2024-02-14T17:34:40;14.50;99.90
21104;DHT22;10710;53.398;-1.514;2024-02-14T17:37:26;14.50;99.90
21104;DHT22;10710;53.398;-1.514;2024-02-14T17:40:11;14.50;99.90
21104;DHT22;10710;53.398;-1.514;2024-02-14T17:42:55;14.40;99.90
21104;DHT22;10710;53.398;-1.514;2024-02-14T17:45:39;14.50;99.90
21104;DHT22;10710;53.398;-1.514;2024-02-14T17:48:24;14.60;99.90
21104;DHT22;10710;53.398;-1.514;2024-02-14T17:51:09;14.60;99.90
21104;DHT22;10710;53.398;-1.514;2024-02-14T17:53:54;14.60;99.90
21104;DHT22;10710;53.398;-1.514;2024-02-14T17:56:39;14.70;99.90
21104;DHT22;10710;53.398;-1.514;2024-02-14T17:59:24;14.80;99.90
21104;DHT22;10710;53.398;-1.514;2024-02-14T18:02:09;14.90;99.90
21104;DHT22;10710;53.398;-1.514;2024-02-14T18:04:53;14.80;99.90
21104;DHT22;10710;53.398;-1.514;2024-02-14T18:07:38;14.90;99.90
21104;DHT22;10710;53.398;-1.514;2024-02-14T18:10:23;15.00;99.90
21104;DHT22;10710;53.398;-1.514;2024-02-14T18:13:08;15.00;99.90
21104;DHT22;10710;53.398;-1.514;2024-02-14T18:15:52;15.00;99.90
21104;DHT22;10710;53.398;-1.514;2024-02-14T18:18:37;15.10;99.90
21104;DHT22;10710;53.398;-1.514;2024-02-14T18:21:25;15.00;99.90
21104;DHT22;10710;53.398;-1.514;2024-02-14T18:24:10;14.90;99.90
21104;DHT22;10710;53.398;-1.514;2024-02-14T18:26:54;14.80;99.90
21104;DHT22;10710;53.398;-1.514;2024-02-14T18:29:39;14.90;99.90
21104;DHT22;10710;53.398;-1.514;2024-02-14T18:32:23;14.80;99.90
21104;DHT22;10710;53.398;-1.514;2024-02-14T18:35:08;14.80;99.90
21104;DHT22;10710;53.398;-1.514;2024-02-14T18:37:53;14.80;99.90